createdAt,value
2019-05-14T00:02:12.257Z,1.90
2019-05-14T00:07:11.573Z,2.37
2019-05-14T00:12:11.353Z,1.92
2019-05-14T00:14:43.174Z,2.20
2019-05-14T00:17:11.338Z,2.20
2019-05-14T00:19:41.629Z,2.00
2019-05-14T00:22:11.843Z,2.08
2019-05-14T00:24:41.962Z,1.70
2019-05-14T00:27:11.657Z,2.20
2019-05-14T00:29:41.902Z,2.10
2019-05-14T00:32:11.244Z,2.02
2019-05-14T00:34:42.137Z,1.72
2019-05-14T00:37:11.826Z,2.35
2019-05-14T00:39:41.632Z,1.75
2019-05-14T00:42:12.436Z,2.05
2019-05-14T00:44:53.766Z,2.05
2019-05-14T00:47:11.423Z,2.17
2019-05-14T00:49:42.612Z,1.90
2019-05-14T00:54:41.659Z,1.90
2019-05-14T00:57:11.881Z,2.10
2019-05-14T01:00:52.235Z,2.00
2019-05-14T01:08:16.953Z,2.20
2019-05-14T01:10:45.408Z,2.20
2019-05-14T01:13:13.649Z,2.42
2019-05-14T01:15:41.746Z,1.90
2019-05-14T01:18:11.371Z,2.22
2019-05-14T01:20:41.193Z,1.98
2019-05-14T01:23:08.944Z,1.90
2019-05-14T01:25:37.520Z,2.00
2019-05-14T01:28:05.605Z,1.98
2019-05-14T01:33:01.743Z,2.10
2019-05-14T01:35:31.589Z,1.85
2019-05-14T01:37:59.408Z,2.02
2019-05-14T01:40:26.831Z,2.10
2019-05-14T01:42:54.255Z,2.15
2019-05-14T01:45:27.781Z,1.90
2019-05-14T01:47:52.144Z,2.00
2019-05-14T01:50:21.512Z,1.70
2019-05-14T01:52:51.861Z,1.95
2019-05-14T01:55:18.596Z,1.80
2019-05-14T01:57:45.855Z,1.92
2019-05-14T02:00:14.989Z,2.27
2019-05-14T02:02:42.694Z,2.00
2019-05-14T02:05:12.447Z,2.27
2019-05-14T02:07:42.083Z,2.17
2019-05-14T02:10:11.757Z,1.75
2019-05-14T02:14:31.495Z,1.95
2019-05-14T02:16:58.938Z,2.30
2019-05-14T02:19:26.411Z,2.00
2019-05-14T02:21:53.707Z,1.90
2019-05-14T02:26:51.449Z,2.20
2019-05-14T02:29:21.306Z,2.05
2019-05-14T02:31:50.379Z,1.90
2019-05-14T02:34:19.953Z,1.92
2019-05-14T02:36:49.672Z,2.25
2019-05-14T02:39:19.629Z,2.08
2019-05-14T02:41:49.956Z,1.98
2019-05-14T02:44:18.850Z,2.30
2019-05-14T02:46:46.399Z,2.00
2019-05-14T02:49:13.897Z,2.20
2019-05-14T02:51:41.609Z,2.20
2019-05-14T02:54:10.179Z,1.75
2019-05-14T02:56:40.294Z,2.22
2019-05-14T02:59:09.782Z,2.10
2019-05-14T03:01:40.486Z,1.90
2019-05-14T03:04:09.124Z,1.87
2019-05-14T03:06:35.973Z,2.10
2019-05-14T03:11:32.509Z,1.90
2019-05-14T03:14:02.354Z,2.05
2019-05-14T03:16:35.623Z,1.75
2019-05-14T03:19:01.358Z,2.02
2019-05-14T03:21:30.580Z,2.02
2019-05-14T03:24:00.842Z,2.08
2019-05-14T03:26:29.317Z,2.00
2019-05-14T03:28:59.795Z,1.90
2019-05-14T03:31:32.224Z,2.15
2019-05-14T03:34:02.069Z,2.10
2019-05-14T03:36:34.110Z,2.20
2019-05-14T03:38:59.380Z,1.77
2019-05-14T03:43:56.352Z,1.87
2019-05-14T03:46:41.221Z,1.70
2019-05-14T03:48:53.617Z,2.20
2019-05-14T03:51:20.847Z,1.98
2019-05-14T03:53:56.886Z,2.00
2019-05-14T03:58:49.424Z,2.20
2019-05-14T04:01:20.134Z,2.12
2019-05-14T04:03:50.407Z,2.12
2019-05-14T04:06:19.126Z,1.90
2019-05-14T04:08:49.533Z,1.92
2019-05-14T04:11:16.048Z,2.00
2019-05-14T04:13:43.528Z,2.33
2019-05-14T04:16:13.249Z,2.00
2019-05-14T04:18:40.926Z,2.25
2019-05-14T04:21:09.850Z,2.00
2019-05-14T04:23:39.623Z,1.90
2019-05-14T04:26:09.344Z,2.00
2019-05-14T04:28:39.037Z,2.20
2019-05-14T04:31:05.614Z,2.10
2019-05-14T04:33:34.543Z,2.50
2019-05-14T04:36:01.999Z,2.17
2019-05-14T04:38:30.123Z,2.12
2019-05-14T04:42:00.062Z,2.50
2019-05-14T04:44:29.908Z,1.90
2019-05-14T04:47:00.101Z,2.08
2019-05-14T04:49:29.626Z,2.15
2019-05-14T04:51:59.516Z,2.10
2019-05-14T04:54:29.859Z,2.00
2019-05-14T04:57:00.006Z,2.22
2019-05-14T04:59:29.936Z,2.15
2019-05-14T05:01:59.872Z,2.17
2019-05-14T05:04:29.924Z,2.00
2019-05-14T05:06:59.243Z,2.25
2019-05-14T05:09:29.376Z,2.55
2019-05-14T05:11:59.515Z,2.08
2019-05-14T05:14:25.749Z,2.02
2019-05-14T05:16:53.725Z,2.22
2019-05-14T05:19:21.986Z,1.98
2019-05-14T05:21:51.491Z,2.05
2019-05-14T05:24:20.423Z,2.10
2019-05-14T05:26:49.428Z,2.25
2019-05-14T05:29:19.235Z,2.12
2019-05-14T05:31:48.748Z,2.10
2019-05-14T05:34:19.194Z,2.17
2019-05-14T05:36:48.507Z,2.00
2019-05-14T05:41:49.160Z,2.00
2019-05-14T05:44:18.827Z,2.25
2019-05-14T05:46:49.179Z,2.20
2019-05-14T05:49:18.657Z,1.80
2019-05-14T05:51:48.338Z,2.17
2019-05-14T05:54:18.517Z,2.25
2019-05-14T05:56:48.430Z,2.10
2019-05-14T05:59:18.912Z,2.10
2019-05-14T06:01:50.269Z,2.37
2019-05-14T06:04:18.345Z,2.30
2019-05-14T06:06:48.240Z,2.10
2019-05-14T06:09:15.486Z,2.17
2019-05-14T06:11:44.492Z,2.22
2019-05-14T06:14:12.427Z,2.08
2019-05-14T06:16:40.404Z,1.80
2019-05-14T06:19:08.445Z,2.25
2019-05-14T06:21:36.751Z,1.90
2019-05-14T06:24:04.340Z,2.25
2019-05-14T06:27:20.616Z,2.10
2019-05-14T06:29:50.173Z,2.17
2019-05-14T06:32:18.947Z,2.10
2019-05-14T06:37:19.089Z,2.20
2019-05-14T06:39:48.985Z,1.70
2019-05-14T06:42:19.350Z,2.20
2019-05-14T06:44:49.307Z,2.37
2019-05-14T06:47:18.454Z,2.00
2019-05-14T06:49:48.836Z,2.00
2019-05-14T06:52:18.801Z,2.08
2019-05-14T06:54:49.585Z,1.80
2019-05-14T06:57:18.042Z,1.95
2019-05-14T06:59:45.487Z,2.00
2019-05-14T07:02:12.863Z,1.90
2019-05-14T07:04:40.929Z,2.02
2019-05-14T07:07:08.697Z,2.02
2019-05-14T07:09:38.420Z,2.12
2019-05-14T07:14:38.842Z,2.05
2019-05-14T07:17:08.860Z,1.77
2019-05-14T07:19:38.308Z,1.98
2019-05-14T07:22:05.908Z,2.00
2019-05-14T07:24:38.071Z,2.10
2019-05-14T07:27:04.807Z,2.25
2019-05-14T07:29:33.247Z,2.17
2019-05-14T07:32:01.996Z,1.90
2019-05-14T07:34:30.922Z,2.00
2019-05-14T07:37:00.370Z,2.08
2019-05-14T07:39:29.053Z,2.15
2019-05-14T07:41:58.996Z,2.42
2019-05-14T07:44:29.439Z,1.98
2019-05-14T07:46:58.838Z,2.20
2019-05-14T07:49:29.021Z,1.82
2019-05-14T07:51:58.766Z,1.75
2019-05-14T07:54:28.325Z,1.90
2019-05-14T07:56:55.766Z,2.12
2019-05-14T07:59:23.897Z,2.05
2019-05-14T08:01:52.596Z,1.85
2019-05-14T08:04:20.494Z,2.08
2019-05-14T08:06:48.899Z,2.10
2019-05-14T08:09:18.818Z,2.02
2019-05-14T08:14:15.487Z,1.72
2019-05-14T08:16:42.985Z,2.75
2019-05-14T08:19:26.091Z,2.50
2019-05-14T08:21:39.602Z,2.22
2019-05-14T08:24:08.877Z,2.08
2019-05-14T08:26:38.274Z,1.80
2019-05-14T08:29:05.743Z,1.90
2019-05-14T08:31:35.246Z,2.50
2019-05-14T08:34:06.038Z,2.25
2019-05-14T08:36:34.250Z,1.92
2019-05-14T08:39:05.247Z,2.15
2019-05-14T08:41:33.252Z,2.30
2019-05-14T08:44:00.607Z,2.15
2019-05-14T08:46:28.390Z,2.25
2019-05-14T08:48:58.625Z,2.20
2019-05-14T08:51:29.363Z,1.92
2019-05-14T08:53:59.250Z,1.95
2019-05-14T08:56:28.497Z,2.15
2019-05-14T08:58:58.913Z,2.12
2019-05-14T09:01:29.322Z,2.30
2019-05-14T09:03:59.571Z,1.90
2019-05-14T09:11:26.307Z,2.00
2019-05-14T09:13:55.087Z,1.92
2019-05-14T09:16:38.377Z,2.27
2019-05-14T09:18:53.499Z,2.22
2019-05-14T09:21:20.901Z,2.33
2019-05-14T09:23:48.436Z,2.02
2019-05-14T09:26:17.927Z,1.90
2019-05-14T09:28:45.270Z,1.75
2019-05-14T09:31:13.494Z,1.77
2019-05-14T09:33:42.428Z,1.82
2019-05-14T09:38:42.120Z,2.30
2019-05-14T09:41:15.307Z,2.00
2019-05-14T09:43:42.274Z,2.08
2019-05-14T09:46:11.787Z,2.17
2019-05-14T09:48:41.248Z,2.40
2019-05-14T09:51:10.859Z,1.82
2019-05-14T09:56:09.238Z,2.17
2019-05-14T09:58:38.945Z,1.82
2019-05-14T10:01:08.742Z,2.20
2019-05-14T10:06:09.781Z,1.57
2019-05-14T10:08:39.317Z,2.10
2019-05-14T10:11:08.497Z,2.08
2019-05-14T10:15:48.602Z,2.47
2019-05-14T10:18:19.073Z,2.12
2019-05-14T10:20:49.506Z,2.00
2019-05-14T10:23:19.144Z,2.20
2019-05-14T10:25:47.258Z,2.15
2019-05-14T10:30:43.866Z,2.33
2019-05-14T10:33:15.073Z,1.98
2019-05-14T10:35:41.614Z,2.00
2019-05-14T10:38:10.809Z,2.12
2019-05-14T10:43:09.494Z,1.80
2019-05-14T10:45:38.633Z,2.00
2019-05-14T10:48:09.675Z,2.10
2019-05-14T10:50:55.650Z,2.40
2019-05-14T10:53:09.302Z,1.87
2019-05-14T10:55:38.614Z,1.72
2019-05-14T10:58:08.880Z,1.85
2019-05-14T11:00:41.925Z,2.17
2019-05-14T11:03:10.749Z,2.25
2019-05-14T11:05:41.480Z,2.10
2019-05-14T11:08:12.013Z,2.57
2019-05-14T11:13:09.740Z,1.90
2019-05-14T11:15:39.694Z,1.92
2019-05-14T11:18:08.894Z,1.75
2019-05-14T11:20:41.704Z,1.95
2019-05-14T11:23:08.915Z,2.02
2019-05-14T11:28:06.594Z,1.77
2019-05-14T11:30:34.980Z,1.72
2019-05-14T11:36:18.816Z,1.92
2019-05-14T11:38:50.239Z,2.22
2019-05-14T11:41:18.453Z,2.30
2019-05-14T11:43:49.197Z,2.20
2019-05-14T11:46:24.945Z,1.92
2019-05-14T11:48:49.104Z,2.35
2019-05-14T11:51:20.646Z,2.12
2019-05-14T11:53:49.443Z,1.87
2019-05-14T11:56:19.486Z,2.20
2019-05-14T11:58:46.873Z,2.55
2019-05-14T12:01:14.828Z,2.85
2019-05-14T12:03:42.242Z,2.50
2019-05-14T12:06:10.109Z,2.50
2019-05-14T12:08:41.791Z,2.42
2019-05-14T12:11:08.798Z,2.25
2019-05-14T12:13:39.188Z,2.20
2019-05-14T12:16:08.608Z,2.22
2019-05-14T12:18:41.372Z,1.95
2019-05-14T12:21:08.917Z,2.10
2019-05-14T12:23:39.308Z,1.95
2019-05-14T12:26:09.619Z,2.22
2019-05-14T12:28:38.686Z,2.52
2019-05-14T12:31:09.272Z,2.10
2019-05-14T12:33:39.532Z,1.92
2019-05-14T12:36:10.358Z,2.00
2019-05-14T12:38:40.238Z,1.98
2019-05-14T12:41:09.385Z,2.35
2019-05-14T12:43:40.171Z,2.10
2019-05-14T12:46:10.762Z,1.55
2019-05-14T12:51:09.201Z,1.70
2019-05-14T12:53:39.586Z,1.72
2019-05-14T12:56:09.538Z,1.50
2019-05-14T12:58:44.887Z,1.40
2019-05-14T13:01:10.503Z,1.60
2019-05-14T13:06:10.216Z,1.50
2019-05-14T13:08:39.924Z,1.57
2019-05-14T13:11:09.941Z,1.87
2019-05-14T13:13:42.869Z,1.37
2019-05-14T13:16:11.006Z,1.60
2019-05-14T13:18:40.346Z,1.10
2019-05-14T13:21:09.797Z,1.67
2019-05-14T13:26:10.477Z,1.42
2019-05-14T13:31:09.615Z,1.32
2019-05-14T13:33:39.520Z,1.40
2019-05-14T13:36:09.420Z,1.40
2019-05-14T13:38:39.723Z,1.17
2019-05-14T13:41:09.592Z,1.40
2019-05-14T13:43:40.283Z,1.60
2019-05-14T13:46:12.633Z,1.60
2019-05-14T13:51:12.039Z,1.50
2019-05-14T13:54:32.247Z,1.37
2019-05-14T13:57:01.402Z,1.47
2019-05-14T13:59:31.440Z,1.42
2019-05-14T14:02:00.791Z,1.37
2019-05-14T14:06:59.330Z,1.45
2019-05-14T14:09:31.445Z,1.30
2019-05-14T14:12:00.800Z,1.20
2019-05-14T14:16:59.372Z,1.22
2019-05-14T14:19:28.422Z,1.20
2019-05-14T14:21:59.087Z,1.40
2019-05-14T14:24:29.250Z,1.35
2019-05-14T14:26:58.856Z,1.67
2019-05-14T14:34:29.121Z,1.42
2019-05-14T14:37:00.266Z,1.40
2019-05-14T14:39:29.425Z,1.40
2019-05-14T14:41:59.059Z,1.07
2019-05-14T14:44:29.214Z,1.07
2019-05-14T14:46:58.423Z,1.15
2019-05-14T14:49:28.172Z,1.07
2019-05-14T14:51:58.976Z,1.30
2019-05-14T14:54:28.916Z,1.40
2019-05-14T14:56:59.232Z,1.32
2019-05-14T14:59:30.601Z,1.40
2019-05-14T15:02:01.058Z,1.50
2019-05-14T15:04:30.353Z,1.50
2019-05-14T15:07:00.483Z,1.30
2019-05-14T15:09:30.643Z,1.35
2019-05-14T15:12:00.583Z,1.45
2019-05-14T15:14:30.050Z,1.25
2019-05-14T15:17:00.454Z,1.30
2019-05-14T15:19:30.032Z,1.40
2019-05-14T15:21:59.355Z,1.37
2019-05-14T15:24:29.024Z,1.50
2019-05-14T15:27:07.746Z,1.50
2019-05-14T15:31:59.520Z,1.75
2019-05-14T15:34:29.862Z,1.50
2019-05-14T15:37:00.105Z,1.50
2019-05-14T15:39:30.198Z,1.62
2019-05-14T15:42:05.073Z,1.22
2019-05-14T15:44:47.442Z,1.27
2019-05-14T15:47:01.992Z,1.65
2019-05-14T15:49:32.048Z,1.40
2019-05-14T15:52:01.350Z,1.50
2019-05-14T15:54:42.899Z,1.45
2019-05-14T15:57:01.897Z,1.35
2019-05-14T15:59:31.250Z,1.50
2019-05-14T16:02:00.732Z,1.60
2019-05-14T16:04:30.692Z,1.40
2019-05-14T16:09:29.832Z,1.35
2019-05-14T16:14:30.067Z,1.52
2019-05-14T16:16:59.696Z,1.70
2019-05-14T16:19:29.340Z,1.17
2019-05-14T16:21:58.982Z,1.37
2019-05-14T16:24:28.768Z,1.50
2019-05-14T16:26:59.882Z,1.92
2019-05-14T16:29:44.194Z,1.40
2019-05-14T16:32:01.498Z,1.25
2019-05-14T16:34:30.796Z,1.45
2019-05-14T16:44:28.507Z,1.70
2019-05-14T16:46:58.884Z,1.87
2019-05-14T16:49:29.965Z,1.62
2019-05-14T16:51:59.877Z,1.50
2019-05-14T16:54:29.862Z,1.40
2019-05-14T16:56:59.438Z,1.47
2019-05-14T16:59:29.521Z,1.30
2019-05-14T17:01:58.987Z,1.43
2019-05-14T17:04:29.358Z,1.55
2019-05-14T17:06:59.072Z,1.70
2019-05-14T17:09:29.025Z,1.42
2019-05-14T17:11:59.124Z,1.57
2019-05-14T17:14:29.410Z,1.82
2019-05-14T17:16:59.694Z,1.67
2019-05-14T17:19:29.918Z,1.60
2019-05-14T17:21:59.588Z,1.42
2019-05-14T17:24:29.492Z,1.57
2019-05-14T17:26:58.781Z,1.52
2019-05-14T17:34:29.364Z,1.57
2019-05-14T17:40:12.360Z,1.30
2019-05-14T17:42:42.602Z,1.30
2019-05-14T17:45:12.022Z,1.62
2019-05-14T17:47:42.033Z,1.47
2019-05-14T17:50:11.452Z,1.37
2019-05-14T17:52:44.002Z,1.20
2019-05-14T17:57:47.637Z,1.40
2019-05-14T18:00:14.943Z,1.37
2019-05-14T18:02:44.246Z,1.30
2019-05-14T18:05:13.842Z,1.40
2019-05-14T18:07:43.602Z,1.57
2019-05-14T18:10:12.768Z,1.37
2019-05-14T18:15:10.758Z,1.92
2019-05-14T18:17:40.427Z,1.20
2019-05-14T18:20:09.752Z,1.50
2019-05-14T18:25:09.764Z,1.27
2019-05-14T18:27:39.463Z,1.20
2019-05-14T18:30:09.570Z,1.30
2019-05-14T18:32:39.334Z,1.20
2019-05-14T18:35:08.597Z,1.27
2019-05-14T18:37:38.947Z,1.35
2019-05-14T18:40:09.222Z,1.27
2019-05-14T18:42:39.404Z,1.32
2019-05-14T18:45:09.599Z,1.80
2019-05-14T18:47:40.053Z,1.50
2019-05-14T18:50:09.407Z,1.40
2019-05-14T18:52:40.091Z,1.75
2019-05-14T18:57:02.891Z,1.57
2019-05-14T19:02:01.884Z,1.45
2019-05-14T19:07:00.116Z,1.47
2019-05-14T19:09:29.982Z,1.55
2019-05-14T19:11:59.329Z,1.20
2019-05-14T19:14:29.383Z,1.20
2019-05-14T19:16:59.734Z,1.50
2019-05-14T19:19:29.521Z,1.27
2019-05-14T19:21:59.122Z,1.20
2019-05-14T19:24:28.754Z,1.30
2019-05-14T19:29:28.920Z,1.50
2019-05-14T19:31:58.109Z,1.30
2019-05-14T19:34:28.704Z,1.32
2019-05-14T19:36:58.005Z,1.60
2019-05-14T19:39:28.188Z,1.60
2019-05-14T19:41:57.523Z,1.42
2019-05-14T19:44:26.802Z,2.30
2019-05-14T19:49:26.121Z,2.60
2019-05-14T19:51:55.753Z,2.65
2019-05-14T19:54:25.698Z,2.45
2019-05-14T19:56:57.593Z,2.42
2019-05-14T19:59:28.760Z,2.05
2019-05-14T20:04:29.234Z,2.08
2019-05-14T20:06:58.902Z,1.80
2019-05-14T20:09:29.418Z,1.90
2019-05-14T20:14:28.814Z,2.00
2019-05-14T20:16:58.419Z,1.82
2019-05-14T20:19:28.655Z,2.25
2019-05-14T20:25:03.728Z,1.70
2019-05-14T20:27:34.058Z,1.92
2019-05-14T20:30:04.496Z,1.47
2019-05-14T20:32:34.703Z,1.42
2019-05-14T20:35:04.901Z,1.72
2019-05-14T20:37:34.061Z,1.67
2019-05-14T20:40:03.643Z,1.90
2019-05-14T20:42:33.251Z,1.65
2019-05-14T20:45:02.510Z,1.42
2019-05-14T20:47:31.773Z,1.65
2019-05-14T20:50:01.009Z,1.70
2019-05-14T20:52:30.272Z,1.65
2019-05-14T20:54:59.494Z,1.80
2019-05-14T20:57:33.354Z,2.00
2019-05-14T21:00:00.404Z,1.80
2019-05-14T21:02:29.678Z,2.00
2019-05-14T21:05:04.196Z,1.90
2019-05-14T21:07:30.801Z,1.60
2019-05-14T21:12:29.121Z,1.60
2019-05-14T21:14:59.098Z,1.70
2019-05-14T21:17:28.771Z,2.05
2019-05-14T21:22:29.110Z,1.80
2019-05-14T21:24:58.410Z,1.77
2019-05-14T21:27:40.811Z,2.00
2019-05-14T21:30:00.721Z,1.87
2019-05-14T21:32:30.357Z,1.70
2019-05-14T21:35:00.598Z,1.40
2019-05-14T21:37:30.262Z,1.60
2019-05-14T21:39:59.801Z,1.67
2019-05-14T21:44:58.572Z,1.50
2019-05-14T21:47:28.560Z,1.50
2019-05-14T21:49:58.433Z,1.55
2019-05-14T21:54:58.682Z,1.85
2019-05-14T21:59:58.866Z,1.77
2019-05-14T22:04:23.629Z,1.70
2019-05-14T22:06:53.498Z,1.60
2019-05-14T22:09:23.715Z,1.52
2019-05-14T22:11:53.438Z,1.98
2019-05-14T22:14:23.887Z,1.70
2019-05-14T22:16:53.454Z,1.70
2019-05-14T22:19:23.441Z,2.00
2019-05-14T22:21:52.758Z,1.70
2019-05-14T22:24:21.884Z,1.30
2019-05-14T22:26:51.119Z,1.62
2019-05-14T22:29:20.359Z,1.50
2019-05-14T22:31:49.489Z,1.77
2019-05-14T22:34:18.640Z,1.47
2019-05-14T22:36:48.462Z,1.65
2019-05-14T22:39:19.890Z,1.65
2019-05-14T22:41:49.323Z,1.55
2019-05-14T22:44:18.752Z,1.52
2019-05-14T22:49:19.127Z,1.60
2019-05-14T22:51:49.311Z,1.70
2019-05-14T22:54:20.838Z,1.55
2019-05-14T22:56:50.421Z,1.37
2019-05-14T22:59:20.644Z,1.50
2019-05-14T23:04:18.783Z,1.90
2019-05-14T23:11:03.327Z,1.70
2019-05-14T23:13:32.495Z,1.30
2019-05-14T23:16:01.857Z,1.70
2019-05-14T23:18:31.019Z,1.50
2019-05-14T23:21:00.357Z,1.55
2019-05-14T23:23:29.537Z,1.70
2019-05-14T23:25:59.013Z,1.50
2019-05-14T23:28:41.903Z,1.30
2019-05-14T23:31:00.416Z,1.50
2019-05-14T23:33:30.005Z,1.42
2019-05-14T23:35:59.383Z,1.45
2019-05-14T23:38:29.078Z,1.60
2019-05-14T23:40:58.842Z,1.67
2019-05-14T23:43:29.383Z,1.40
2019-05-14T23:45:58.875Z,1.40
2019-05-14T23:48:29.031Z,1.32
2019-05-14T23:50:58.655Z,1.52
2019-05-14T23:53:29.176Z,1.50
2019-05-14T23:55:58.608Z,1.55
2019-05-14T23:58:28.969Z,1.60
